Tiempo atmosférico en la estación meteorológica de Anaga, Santa Cruz de Tenerife (19 m.)



Fecha
DESCASC
Temp. máxima en grados centígrados (hora)
DESCASC
Temp. mínima en grados centígrados (hora)
DESCASC
Temp. media en grados centígrados
DESCASC
Racha de viento máxima en m/sg (hora)
DESCASC
Velocidad máxima media en intervalos de 10 minutos(hora)
DESCASC
Precipitaciones diarias en mm
DESCASC
Precipitaciones de 00:00 a 06:00 en mm
DESCASC
Precipitaciones de 06:00 a 12:00 en mm
DESCASC
Precipitaciones de 12:00 a 18:00 en mm
DESCASC
Precipitaciones de 18:00 a 24:00 en mm
DESCASC
17-09-2020 26.8 (13:00) 23.5 (23:10) 25.1 12.78 (02:10) 6.67 (02:00) 0 0 0 0 0
15-09-2020 28.7 (16:50) 24.2 (05:40) 26.5 9.44 (18:20) 4.72 (16:00) 0 0 0 0 0
14-09-2020 29.5 (16:30) 20.5 (08:10) 25 9.17 (15:40) 4.72 (13:00) 0 0 0 0 0
13-09-2020 27 (13:10) 21.8 (00:00) 24.4 4.44 (13:40) 2.78 (13:40) 0.2 0.2 0 0 0
12-09-2020 27.8 (13:00) 23 (06:30) 25.4 7.78 (02:40) 3.61 (05:00) 0.2 0 0 0 0.2
11-09-2020 29.4 (14:10) 23.1 (00:00) 26.3 11.67 (03:40) 5.56 (04:30) 0 0 0 0 0
10-09-2020 32.6 (15:00) 23.4 (00:00) 28 13.33 (19:10) 6.39 (18:20) 0 0 0 0 0
09-09-2020 34.4 (13:10) 26.3 (23:40) 30.4 8.61 (01:30) 4.17 (02:00) 0 0 0 0 0
08-09-2020 34.8 (14:10) 23.6 (00:00) 29.2 7.5 (14:00) 3.89 (14:00) 0 0 0 0 0
07-09-2020 29.4 (14:10) 23.4 (04:00) 26.4 6.94 (15:30) 3.33 (15:10) 0 0 0 0 0
06-09-2020 29.1 (16:20) 19.7 (00:00) 24.4 6.11 (14:00) 3.61 (14:00) 0 0 0 0 0
05-09-2020 28 (17:20) 22.3 (00:00) 25.1 7.78 (18:30) 4.17 (18:30) 0 0 0 0 0
04-09-2020 28.8 (14:30) 19.6 (00:00) 24.2 9.44 (09:50) 3.89 (09:50) 0 0 0 0 0
03-09-2020 28 (15:40) 19.5 (00:00) 23.8 9.72 (11:30) 4.72 (13:20) 0 0 0 0 0
02-09-2020 30.7 (16:50) 20.1 (00:00) 25.4 8.61 (13:10) 4.17 (13:20) 0 0 0 0 0
01-09-2020 29.2 (15:00) 23.5 (00:00) 26.4 9.17 (16:00) 4.72 (16:10) 0 0 0 0 0
31-08-2020 26.4 (15:00) 21.9 (00:00) 24.1 10 (14:00) 4.44 (15:30) 0 0 0 0 0
30-08-2020 25.2 (17:10) 21.5 (00:00) 23.4 10.28 (16:00) 3.61 (16:00) 0 0 0 0 0
29-08-2020 27.6 (14:00) 23.2 (00:00) 25.4 12.5 (08:40) 5.56 (14:40) 0 0 0 0 0
28-08-2020 34.2 (15:10) 23.8 (00:00) 29 10.83 (23:00) 5.28 (15:50) 0 0 0 0 0
27-08-2020 38.3 (16:50) 25 (00:00) 31.6 9.72 (16:40) 5.28 (16:40) 0 0 0 0 0
26-08-2020 30.2 (15:00) 23.8 (00:00) 27 8.61 (09:40) 3.89 (09:40) 0 0 0 0 0
25-08-2020 31.1 (15:50) 23.2 (00:00) 27.2 10.56 (04:10) 5 (04:10) 0 0 0 0 0
24-08-2020 28.9 (14:20) 23.4 (05:20) 26.1 11.67 (12:30) 5.83 (09:50) 0 0 0 0 0
23-08-2020 30.5 (15:40) 24 (00:00) 27.3 12.5 (14:40) 6.11 (10:40) 0 0 0 0 0
22-08-2020 36.1 (14:30) 23.1 (00:00) 29.6 10.56 (22:10) 5.83 (22:10) 0 0 0 0 0
21-08-2020 31.2 (17:00) 20.1 (07:20) 25.7 7.22 (13:20) 3.89 (19:00) 0 0 0 0 0

Gráficas

Temp. máximas Temp. mínimas Temp. medias Precipitaciones Rachas de viento máximas Velocidades máximas media en intervalos de 10 minutos

Datos horarios

Fecha y hora oficial Temperatura (ºC) Velocidad del viento (km/h) Dirección del viento Racha (km/h) Dirección de racha Precipitación (mm) Presión (hPa) Tendencia (hPa) Humedad (%)
2020-09-19 23:00:00 23 4 Norte 12 Norte 0 -- -- 69
2020-09-19 22:00:00 23.3 5 Norte 21 Norte 0 -- -- 68
2020-09-19 21:00:00 23.4 8 Norte 24 Norte 0 -- -- 66
2020-09-19 20:00:00 24.1 9 Norte 23 Nordeste 0 -- -- 64
2020-09-19 19:00:00 25.3 5 Norte 21 Sudeste 0 -- -- 61
2020-09-19 18:00:00 26.5 5 Norte 34 Sur 0 -- -- 56
2020-09-19 17:00:00 26.4 15 Sur 36 Sudeste 0 -- -- 61
2020-09-19 16:00:00 25.8 15 Sudeste 33 Sudeste 0 -- -- 62
2020-09-19 15:00:00 25.9 13 Sudeste 38 Sudeste 0 -- -- 62
2020-09-19 14:00:00 25.9 14 Sudeste 32 Sudeste 0 -- -- 62
2020-09-19 13:00:00 25.9 12 Sudeste 30 Este 0 -- -- 61
2020-09-19 12:00:00 25.8 11 Sudeste 27 Sudeste 0 -- -- 62
2020-09-19 11:00:00 25.6 10 Sudeste 23 Sur 0 -- -- 61
2020-09-19 10:00:00 25 6 Sudeste 14 Norte 0 -- -- 61
2020-09-19 09:00:00 22 3 Norte 10 Norte 0 -- -- 71
2020-09-19 08:00:00 21.1 0 Calma 5 Norte 0 -- -- 74
2020-09-19 07:00:00 22.1 3 Norte 10 Norte 0 -- -- 71
2020-09-19 06:00:00 22.4 5 Norte 15 Norte 0 -- -- 72
2020-09-19 05:00:00 22.4 5 Norte 13 Norte 0 -- -- 71
2020-09-19 04:00:00 22.9 4 Norte 11 Norte 0 -- -- 71
2020-09-19 03:00:00 22.8 4 Norte 17 Noroeste 0 -- -- 71
2020-09-19 02:00:00 22.8 3 Norte 12 Noroeste 0 -- -- 70
2020-09-19 01:00:00 23.1 4 Norte 12 Norte 0 -- -- 70
2020-09-19 00:00:00 23.2 5 Norte 22 Nordeste 0 -- -- 70
2020-09-18 23:00:00 23.3 9 Norte 22 Norte 0 -- -- 71
2020-09-18 22:00:00 23.3 8 Norte 25 Noroeste 0 -- -- 69
2020-09-18 21:00:00 23.5 8 Norte 26 Norte 0 -- -- 69
2020-09-18 20:00:00 23.9 13 Norte 29 Norte 0 -- -- 65
2020-09-18 19:00:00 24.5 12 Norte 28 Norte 0 -- -- 63
2020-09-18 18:00:00 26.1 12 Norte 33 Norte 0 -- -- 55
2020-09-18 17:00:00 27 17 Norte 41 Nordeste 0 -- -- 51
2020-09-18 16:00:00 27.1 17 Norte 32 Norte 0 -- -- 55
2020-09-18 15:00:00 27.8 14 Norte 33 Norte 0 -- -- 55
2020-09-18 14:00:00 27.5 13 Norte 27 Nordeste 0 -- -- 54
2020-09-18 13:00:00 27 16 Norte 35 Nordeste 0 -- -- 56
2020-09-18 12:00:00 26.7 12 Norte 26 Norte 0 -- -- 59
2020-09-18 11:00:00 26 12 Norte 28 Norte 0 -- -- 61
2020-09-18 10:00:00 24.9 11 Norte 26 Norte 0 -- -- 62
2020-09-18 09:00:00 23.4 10 Norte 30 Nordeste 0 -- -- 68
2020-09-18 08:00:00 22.7 12 Norte 30 Norte 0 -- -- 71
2020-09-18 07:00:00 22.9 12 Norte 32 Norte 0 -- -- 69
2020-09-18 06:00:00 23.1 16 Norte 43 Nordeste 0 -- -- 65
2020-09-18 05:00:00 23.1 15 Norte 41 Norte 0 -- -- 66
2020-09-18 04:00:00 23.1 21 Norte 41 Norte 0 -- -- 66
2020-09-18 03:00:00 23.6 12 Norte 43 Nordeste 0 -- -- 59
2020-09-18 02:00:00 23.5 21 Norte 46 Nordeste 0 -- -- 61
2020-09-18 01:00:00 23.7 14 Norte 38 Nordeste 0 -- -- 59
2020-09-18 00:00:00 23.7 14 Norte 39 Nordeste 0 -- -- 67
2020-09-17 23:00:00 23.6 14 Nordeste 39 Nordeste 0 -- -- 68
2020-09-17 22:00:00 24.2 12 Norte 27 Nordeste 0 -- -- 63
2020-09-17 21:00:00 24.2 12 Norte 30 Norte 0 -- -- 64
2020-09-17 20:00:00 24.3 18 Norte 35 Norte 0 -- -- 64
2020-09-17 19:00:00 25 15 Norte 32 Norte 0 -- -- 68
2020-09-17 18:00:00 26.2 10 Nordeste 29 Nordeste 0 -- -- 64
2020-09-17 17:00:00 26.3 8 Nordeste 19 Nordeste 0 -- -- 64
2020-09-17 16:00:00 26.1 5 Nordeste 19 Nordeste 0 -- -- 64
2020-09-17 15:00:00 24.9 10 Nordeste 36 Nordeste 0 -- -- 68
2020-09-17 14:00:00 25.4 14 Norte 30 Norte 0 -- -- 71
2020-09-17 13:00:00 26.8 12 Norte 30 Norte 0 -- -- 66
2020-09-17 12:00:00 26.1 12 Norte 26 Nordeste 0 -- -- 66
2020-09-17 11:00:00 25.6 9 Norte 23 Norte 0 -- -- 67
2020-09-17 10:00:00 24.7 12 Norte 29 Norte 0 -- -- 71
2020-09-17 09:00:00 24.1 12 Norte 37 Nordeste 0 -- -- 75
2020-09-17 08:00:00 24.2 9 Norte 28 Nordeste 0 -- -- 75
2020-09-17 07:00:00 24.6 7 Nordeste 28 Nordeste 0 -- -- 71
2020-09-17 06:00:00 24.6 13 Norte 28 Norte 0 -- -- 72
2020-09-17 05:00:00 24.8 13 Norte 29 Nordeste 0 -- -- 70
2020-09-17 04:00:00 24.9 12 Nordeste 33 Norte 0 -- -- 68
2020-09-17 03:00:00 25.4 18 Norte 46 Norte 0 -- -- 63
2020-09-17 02:00:00 25.2 24 Norte 43 Nordeste 0 -- -- 68
2020-09-17 01:00:00 25.3 15 Nordeste 35 Nordeste 0 -- -- 74
2020-09-17 00:00:00 25.3 14 Norte 30 Norte 0 -- -- 73
2020-09-16 23:00:00 25.9 11 Nordeste 33 Norte 0 -- -- 70
2020-09-16 22:00:00 27.5 4 Noroeste 12 Norte 0 -- -- 53
2020-09-16 21:00:00 27.6 3 Norte 10 Sudoeste 0 -- -- 50
2020-09-16 20:00:00 28.5 5 Sur 15 Sudeste 0 -- -- 45
2020-09-16 19:00:00 28.3 9 Sur 16 Sur 0 -- -- 52
2020-09-16 18:00:00 29.2 8 Sur 21 Sudeste 0 -- -- 43
2020-09-16 17:00:00 30.1 8 Sur 22 Sudeste 0 -- -- 37
2020-09-16 16:00:00 30 4 Noroeste 14 Sur 0 -- -- 41
2020-09-16 15:00:00 29.8 7 Sur 17 Sur 0 -- -- 47
2020-09-16 14:00:00 27.7 2 Sudeste 12 Sudeste 0 -- -- 57
2020-09-16 13:00:00 26.7 6 Sur 15 Sudoeste 0 -- -- 64
2020-09-16 12:00:00 25.8 10 Sur 22 Sudeste 0 -- -- 75
2020-09-16 11:00:00 26.3 7 Sur 16 Sur 0 -- -- 65
2020-09-16 10:00:00 26.4 5 Sur 28 Sur 0 -- -- 55
2020-09-16 09:00:00 26.2 2 Este 11 Sudoeste 0 -- -- 43
2020-09-16 08:00:00 25.4 3 Sudeste 9 Sudeste 0 -- -- 44
2020-09-16 07:00:00 24.6 2 Oeste 8 Norte 0 -- -- 45
2020-09-16 06:00:00 24.3 2 Norte 8 Sur 0 -- -- 49
2020-09-16 05:00:00 24.1 2 Noroeste 6 Norte 0 -- -- 58
2020-09-16 04:00:00 24.5 2 Sudoeste 9 Sudoeste 0 -- -- 61
2020-09-16 03:00:00 24.6 3 Sudoeste 21 Norte 0 -- -- 66
2020-09-16 02:00:00 24.6 12 Norte 26 Noroeste 0 -- -- 70
2020-09-16 01:00:00 25.3 7 Norte 16 Nordeste 0 -- -- 61
2020-09-16 00:00:00 25.4 2 Este 27 Noroeste 0 -- -- 63
2020-09-15 23:00:00 26 10 Norte 23 Norte 0 -- -- 54
2020-09-15 22:00:00 28.1 8 Nordeste 31 Nordeste 0 -- -- 35
2020-09-15 21:00:00 26.3 9 Nordeste 32 Nordeste 0 -- -- 54
2020-09-15 20:00:00 25.5 11 Nordeste 30 Noroeste 0 -- -- 57
2020-09-15 19:00:00 25.4 13 Norte 34 Norte 0 -- -- 68
2020-09-15 18:00:00 27 8 Norte 23 Norte 0 -- -- 58
2020-09-15 17:00:00 28.4 13 Norte 30 Norte 0 -- -- 58
2020-09-15 16:00:00 27.5 17 Norte 31 Nordeste 0 -- -- 57
2020-09-15 15:00:00 27.1 7 Norte 29 Nordeste 0 -- -- 63
2020-09-15 14:00:00 27.3 17 Norte 30 Nordeste 0 -- -- 61
2020-09-15 13:00:00 27.5 14 Norte 31 Norte 0 -- -- 58
2020-09-15 12:00:00 26.7 11 Sur 23 Sudeste 0 -- -- 65
2020-09-15 11:00:00 26.1 11 Norte 23 Nordeste 0 -- -- 65
2020-09-15 10:00:00 25.1 10 Norte 32 Norte 0 -- -- 69
2020-09-15 09:00:00 24.6 4 Norte 23 Nordeste 0 -- -- 72
2020-09-15 08:00:00 24.2 8 Norte 17 Norte 0 -- -- 72
2020-09-15 07:00:00 24.2 6 Norte 14 Norte 0 -- -- 72
2020-09-15 06:00:00 24.3 5 Norte 14 Norte 0 -- -- 72
2020-09-15 05:00:00 24.4 8 Norte 18 Norte 0 -- -- 70
2020-09-15 04:00:00 24.8 0 Calma 27 Norte 0 -- -- 64
2020-09-15 03:00:00 25.8 9 Norte 32 Norte 0 -- -- 58
2020-09-15 02:00:00 24.9 5 Norte 10 Norte 0 -- -- 58
2020-09-15 01:00:00 25 2 Sur 10 Sur 0 -- -- 64
2020-09-15 00:00:00 25.3 3 Sudoeste 13 Nordeste 0 -- -- 56
2020-09-14 23:00:00 25.5 5 Norte 13 Nordeste 0 -- -- 59
2020-09-14 22:00:00 25.8 4 Noroeste 14 Sudeste 0 -- -- 54
2020-09-14 21:00:00 25.7 5 Sur 13 Sur 0 -- -- 56
2020-09-14 20:00:00 26.2 5 Norte 14 Norte 0 -- -- 56
2020-09-14 19:00:00 26.8 6 Norte 14 Norte 0 -- -- 58
2020-09-14 18:00:00 27.8 5 Norte 22 Norte 0 -- -- 55
2020-09-14 17:00:00 28.8 10 Norte 29 Norte 0 -- -- 53
2020-09-14 16:00:00 29 6 Norte 33 Este 0 -- -- 52
2020-09-14 15:00:00 27.5 15 Sudeste 31 Sur 0 -- -- 61
2020-09-14 14:00:00 27.3 14 Sur 31 Sudeste 0 -- -- 63
2020-09-14 13:00:00 27.1 17 Sur 32 Sur 0 -- -- 63
2020-09-14 12:00:00 26.2 10 Sudeste 27 Sur 0 -- -- 66
2020-09-14 11:00:00 25.5 8 Sudeste 22 Sudeste 0 -- -- 70
2020-09-14 10:00:00 24.9 7 Sur 15 Sur 0 -- -- 72
2020-09-14 09:00:00 21.9 5 Norte 8 Norte 0 -- -- 71
2020-09-14 08:00:00 20.7 5 Norte 8 Norte 0 -- -- 76
2020-09-14 07:00:00 20.7 4 Norte 9 Norte 0 -- -- 79
2020-09-14 06:00:00 20.8 4 Norte 8 Norte 0 -- -- 79
2020-09-14 05:00:00 21.4 2 Norte 9 Norte 0 -- -- 77
2020-09-14 04:00:00 22.8 2 Sudoeste 11 Noroeste 0 -- -- 73
2020-09-14 03:00:00 23.3 4 Norte 13 Norte 0 -- -- 72
2020-09-14 02:00:00 23 4 Norte 10 Nordeste 0 -- -- 75
2020-09-14 01:00:00 22.5 2 Norte 5 Norte 0 -- -- 78
2020-09-14 00:00:00 22.8 2 Norte 7 Norte 0 -- -- 77
2020-09-13 23:00:00 23.9 0 Calma 6 Sur 0 -- -- 79
2020-09-13 22:00:00 24.2 2 Norte 9 Norte 0 -- -- 72
2020-09-13 21:00:00 24.4 3 Norte 14 Norte 0 -- -- 72
2020-09-13 20:00:00 24.7 3 Sudoeste 12 Sudoeste 0 -- -- 76
2020-09-13 19:00:00 25.1 5 Sudoeste 11 Sur 0 -- -- 75
2020-09-13 18:00:00 25.4 4 Sur 12 Sudeste 0 -- -- 73
2020-09-13 17:00:00 25.4 8 Sur 12 Sur 0 -- -- 72
2020-09-13 16:00:00 25.9 6 Sur 15 Sur 0 -- -- 70
2020-09-13 15:00:00 26.6 6 Sur 14 Sur 0 -- -- 68
2020-09-13 14:00:00 26 6 Sudeste 16 Sur 0 -- -- 70
2020-09-13 13:00:00 26.5 8 Sur 14 Sur 0 -- -- 68
2020-09-13 12:00:00 25.9 7 Sur 15 Sur 0 -- -- 70
2020-09-13 11:00:00 25.4 7 Sur 12 Sur 0 -- -- 71
2020-09-13 10:00:00 23.8 3 Sur 9 Sur 0 -- -- 77
2020-09-13 09:00:00 22.6 5 Sudoeste 9 Sur 0 -- -- 82
2020-09-13 08:00:00 21.9 4 Norte 6 Norte 0 -- -- 85
2020-09-13 07:00:00 22.3 0 Calma 6 Sur 0 -- -- 83
2020-09-13 06:00:00 22.9 2 Sur 11 Sur 0 -- -- 80
2020-09-13 05:00:00 23.2 5 Sur 10 Sur 0 -- -- 81
2020-09-13 04:00:00 23 0 Calma 5 Sudeste 0 -- -- 83
2020-09-13 03:00:00 23 0 Calma 4 Norte 0 -- -- 83
2020-09-13 02:00:00 23.2 2 Norte 6 Sudeste 0 -- -- 83
2020-09-13 01:00:00 23.3 3 Sur 11 Sudeste 0.2 -- -- 80
2020-09-13 00:00:00 23.6 3 Sur 12 Sur 0.2 -- -- 79
2020-09-12 23:00:00 24.2 5 Sudeste 15 Sur 0 -- -- 73
2020-09-12 22:00:00 24.4 3 Nordeste 17 Nordeste 0 -- -- 67
2020-09-12 21:00:00 24.9 3 Norte 9 Nordeste 0 -- -- 65
2020-09-12 20:00:00 25 5 Sur 15 Sudeste 0 -- -- 68
2020-09-12 19:00:00 25.4 7 Norte 20 Noroeste 0 -- -- 64
2020-09-12 18:00:00 26 10 Norte 22 Norte 0 -- -- 61
2020-09-12 17:00:00 26 11 Norte 23 Norte 0 -- -- 62
2020-09-12 16:00:00 27 9 Sur 18 Sudeste 0 -- -- 63
2020-09-12 15:00:00 27.1 6 Sur 23 Sudeste 0 -- -- 63
2020-09-12 14:00:00 26.8 9 Sudeste 24 Sudeste 0 -- -- 63
2020-09-12 13:00:00 27.8 7 Sudeste 18 Norte 0 -- -- 55
2020-09-12 12:00:00 26.9 6 Nordeste 17 Nordeste 0 -- -- 56
2020-09-12 11:00:00 26.2 5 Norte 16 Nordeste 0 -- -- 59
2020-09-12 10:00:00 24.7 5 Nordeste 15 Norte 0 -- -- 66
2020-09-12 09:00:00 23.4 8 Nordeste 24 Norte 0 -- -- 70
2020-09-12 08:00:00 23.1 9 Norte 21 Este 0 -- -- 71
2020-09-12 07:00:00 23 9 Norte 19 Norte 0 -- -- 71
2020-09-12 06:00:00 23.2 9 Norte 24 Norte 0 -- -- 69
2020-09-12 05:00:00 23.3 13 Norte 26 Norte 0 -- -- 69
2020-09-12 04:00:00 23.2 8 Norte 26 Norte 0 -- -- 71
2020-09-12 03:00:00 23.4 8 Nordeste 28 Nordeste 0 -- -- 75
2020-09-12 02:00:00 23.4 5 Norte 15 Norte 0 -- -- 72
2020-09-12 01:00:00 23.6 10 Norte 25 Nordeste 0 -- -- 71
2020-09-12 00:00:00 23.6 12 Norte 24 Norte 0 -- -- 71
2020-09-11 23:00:00 24 9 Norte 28 Norte 0 -- -- 71
2020-09-11 22:00:00 24.1 12 Norte 29 Noroeste 0 -- -- 69
2020-09-11 21:00:00 24.6 10 Norte 30 Nordeste 0 -- -- 64
2020-09-11 20:00:00 24.6 13 Norte 36 Norte 0 -- -- 66
2020-09-11 19:00:00 25.4 13 Norte 32 Norte 0 -- -- 63
2020-09-11 18:00:00 26.5 15 Norte 32 Norte 0 -- -- 59
2020-09-11 17:00:00 27.6 14 Norte 36 Nordeste 0 -- -- 54
2020-09-11 16:00:00 27.8 19 Norte 39 Nordeste 0 -- -- 55
2020-09-11 15:00:00 28.5 19 Norte 38 Norte 0 -- -- 52
2020-09-11 14:00:00 29.3 14 Nordeste 28 Norte 0 -- -- 47
2020-09-11 13:00:00 27.8 14 Norte 33 Norte 0 -- -- 52
2020-09-11 12:00:00 26.7 18 Norte 34 Norte 0 -- -- 56
2020-09-11 11:00:00 26.1 16 Norte 31 Norte 0 -- -- 60
2020-09-11 10:00:00 24.7 13 Norte 33 Nordeste 0 -- -- 63
2020-09-11 09:00:00 24 12 Norte 35 Norte 0 -- -- 65
2020-09-11 08:00:00 23.2 19 Norte 36 Norte 0 -- -- 68
2020-09-11 07:00:00 23.3 16 Norte 35 Nordeste 0 -- -- 70
2020-09-11 06:00:00 23.2 13 Norte 30 Nordeste 0 -- -- 69
2020-09-11 05:00:00 23.2 15 Norte 37 Norte 0 -- -- 69
2020-09-11 04:00:00 23.3 15 Norte 42 Norte 0 -- -- 70
2020-09-11 03:00:00 23.4 19 Norte 33 Norte 0 -- -- 70
2020-09-11 02:00:00 23.4 14 Norte 31 Norte 0 -- -- 72
2020-09-11 01:00:00 23.5 15 Norte 36 Norte 0 -- -- 71
2020-09-11 00:00:00 23.5 10 Norte 25 Norte 0 -- -- 70
2020-09-10 23:00:00 23.7 9 Norte 28 Norte 0 -- -- 70
2020-09-10 22:00:00 24 11 Norte 30 Norte 0 -- -- 67
2020-09-10 21:00:00 24 14 Norte 37 Norte 0 -- -- 68
2020-09-10 20:00:00 24.3 19 Norte 48 Norte 0 -- -- 67
2020-09-10 19:00:00 25.4 21 Norte 47 Norte 0 -- -- 61
2020-09-10 18:00:00 27.6 22 Norte 40 Norte 0 -- -- 51
2020-09-10 17:00:00 29.5 17 Norte 34 Norte 0 -- -- 46
2020-09-10 16:00:00 31.7 11 Norte 28 Nordeste 0 -- -- 37
2020-09-10 15:00:00 32.6 14 Norte 32 Norte 0 -- -- 32
2020-09-10 14:00:00 30.7 10 Nordeste 33 Norte 0 -- -- 39
2020-09-10 13:00:00 29.1 10 Nordeste 29 Nordeste 0 -- -- 46
2020-09-10 12:00:00 27.5 14 Norte 33 Norte 0 -- -- 57
2020-09-10 11:00:00 27 11 Norte 34 Noroeste 0 -- -- 57
2020-09-10 10:00:00 25.6 15 Norte 38 Norte 0 -- -- 63
2020-09-10 09:00:00 24 19 Norte 37 Norte 0 -- -- 70
2020-09-10 08:00:00 23.4 14 Norte 31 Norte 0 -- -- 73
2020-09-10 07:00:00 23.6 7 Norte 26 Norte 0 -- -- 72
2020-09-10 06:00:00 23.7 9 Norte 32 Norte 0 -- -- 72
2020-09-10 05:00:00 23.8 14 Norte 36 Norte 0 -- -- 72
2020-09-10 04:00:00 24.2 13 Norte 30 Nordeste 0 -- -- 70
2020-09-10 03:00:00 24.8 12 Norte 36 Norte 0 -- -- 66
2020-09-10 02:00:00 25.6 10 Nordeste 24 Norte 0 -- -- 59
2020-09-10 01:00:00 25.5 11 Nordeste 24 Nordeste 0 -- -- 61
2020-09-10 00:00:00 26.6 10 Nordeste 24 Norte 0 -- -- 49
2020-09-09 23:00:00 26.8 12 Nordeste 27 Norte 0 -- -- 52
2020-09-09 22:00:00 27.7 10 Nordeste 21 Nordeste 0 -- -- 46
2020-09-09 21:00:00 27.6 4 Sudoeste 11 Sur 0 -- -- 43
2020-09-09 20:00:00 27.9 7 Sur 22 Sudeste 0 -- -- 45
2020-09-09 19:00:00 28.6 10 Sur 29 Sur 0 -- -- 42
2020-09-09 18:00:00 30.6 10 Sur 25 Sudeste 0 -- -- 37
2020-09-09 17:00:00 31.6 13 Sur 29 Sur 0 -- -- 34
2020-09-09 16:00:00 32.5 13 Sudeste 26 Sudeste 0 -- -- 31
2020-09-09 15:00:00 33.6 9 Sur 23 Sudeste 0 -- -- 29
2020-09-09 14:00:00 34 9 Nordeste 22 Sudeste 0 -- -- 29
2020-09-09 13:00:00 34.3 7 Norte 22 Norte 0 -- -- 28
2020-09-09 12:00:00 33.2 12 Norte 25 Norte 0 -- -- 29
2020-09-09 11:00:00 32.3 9 Norte 22 Norte 0 -- -- 30
2020-09-09 10:00:00 30.7 9 Norte 21 Norte 0 -- -- 33
2020-09-09 09:00:00 28.6 8 Nordeste 22 Nordeste 0 -- -- 35
2020-09-09 08:00:00 27.5 4 Norte 21 Norte 0 -- -- 36
2020-09-09 07:00:00 27.3 5 Norte 16 Norte 0 -- -- 39
2020-09-09 06:00:00 27.7 6 Norte 22 Nordeste 0 -- -- 38
2020-09-09 05:00:00 28.3 9 Norte 27 Norte 0 -- -- 36
2020-09-09 04:00:00 27.3 10 Nordeste 25 Nordeste 0 -- -- 47
2020-09-09 03:00:00 28.2 11 Norte 31 Norte 0 -- -- 39
2020-09-09 02:00:00 29.4 15 Norte 31 Norte 0 -- -- 33
2020-09-09 01:00:00 29.5 10 Norte 24 Nordeste 0 -- -- 34
2020-09-09 00:00:00 27.9 0 Calma 7 Este 0 -- -- 38
2020-09-08 23:00:00 27.4 2 Norte 6 Sur 0 -- -- 40
2020-09-08 22:00:00 28.6 2 Sudoeste 8 Sudoeste 0 -- -- 40
2020-09-08 21:00:00 29.2 4 Sudoeste 12 Sur 0 -- -- 38
2020-09-08 20:00:00 29.8 7 Sur 15 Sudoeste 0 -- -- 37
2020-09-08 19:00:00 30.1 9 Sur 24 Sur 0 -- -- 41
2020-09-08 18:00:00 32.6 9 Sur 24 Sur 0 -- -- 31
2020-09-08 17:00:00 32.8 10 Sur 26 Sudeste 0 -- -- 35
2020-09-08 16:00:00 32.4 10 Sur 27 Sur 0 -- -- 34
2020-09-08 15:00:00 33.5 11 Sur 27 Sudeste 0 -- -- 32
2020-09-08 14:00:00 34.2 14 Sur 27 Sudeste 0 -- -- 30
2020-09-08 13:00:00 33.7 12 Sur 20 Sur 0 -- -- 28
2020-09-08 12:00:00 32.3 8 Sur 15 Sur 0 -- -- 34
2020-09-08 11:00:00 31 8 Sur 13 Sur 0 -- -- 39
2020-09-08 10:00:00 28.6 4 Sudeste 10 Este 0 -- -- 53
2020-09-08 09:00:00 24.8 3 Norte 10 Noroeste 0 -- -- 43
2020-09-08 08:00:00 24.3 4 Noroeste 10 Noroeste 0 -- -- 42
2020-09-08 07:00:00 24.1 4 Norte 10 Noroeste 0 -- -- 46
2020-09-08 06:00:00 23.9 2 Norte 7 Nordeste 0 -- -- 47
2020-09-08 05:00:00 24.4 2 Norte 7 Oeste 0 -- -- 47
2020-09-08 04:00:00 25.1 3 Nordeste 13 Norte 0 -- -- 41
2020-09-08 03:00:00 25.3 2 Norte 8 Norte 0 -- -- 39
2020-09-08 02:00:00 26.2 2 Noroeste 10 Norte 0 -- -- 37
2020-09-08 01:00:00 26 2 Nordeste 9 Norte 0 -- -- 39
2020-09-08 00:00:00 26.5 0 Calma 7 Norte 0 -- -- 41
2020-09-07 23:00:00 26.7 2 Norte 6 Norte 0 -- -- 47
2020-09-07 22:00:00 27.2 3 Norte 6 Norte 0 -- -- 51
2020-09-07 21:00:00 27.7 2 Noroeste 8 Sudoeste 0 -- -- 48
2020-09-07 20:00:00 28.1 3 Sur 10 Sudoeste 0 -- -- 49
2020-09-07 19:00:00 27.3 6 Sur 25 Sudeste 0 -- -- 47
2020-09-07 18:00:00 27.8 8 Sur 20 Sudeste 0 -- -- 59
2020-09-07 17:00:00 28.1 9 Sur 21 Sur 0 -- -- 57
2020-09-07 16:00:00 28.9 8 Sur 25 Sudeste 0 -- -- 56
2020-09-07 15:00:00 29.2 11 Sudeste 22 Sudeste 0 -- -- 59
2020-09-07 14:00:00 28.9 7 Sudeste 19 Sur 0 -- -- 58
2020-09-07 13:00:00 28.5 12 Sudoeste 20 Sudoeste 0 -- -- 56
2020-09-07 12:00:00 28.3 5 Sur 12 Sur 0 -- -- 56
2020-09-07 11:00:00 27.1 4 Sur 15 Sudeste 0 -- -- 62
2020-09-07 10:00:00 25.4 3 Norte 11 Sudeste 0 -- -- 67
2020-09-07 09:00:00 24.7 2 Sudeste 11 Sudeste 0 -- -- 73
2020-09-07 08:00:00 24.3 3 Sudeste 16 Sur 0 -- -- 73
2020-09-07 07:00:00 24.6 4 Norte 10 Norte 0 -- -- 70
2020-09-07 06:00:00 23.8 2 Oeste 7 Noroeste 0 -- -- 70
2020-09-07 05:00:00 23.5 4 Norte 11 Norte 0 -- -- 72
2020-09-07 04:00:00 23.4 0 Calma 5 Noroeste 0 -- -- 72
2020-09-07 03:00:00 23.7 0 Calma 8 Sudeste 0 -- -- 73
2020-09-07 02:00:00 24 3 Sudeste 6 Sudeste 0 -- -- 73
2020-09-07 01:00:00 24.1 4 Sur 7 Sur 0 -- -- 71
2020-09-07 00:00:00 24.1 5 Sudeste 8 Sudeste 0 -- -- 69
2020-09-06 23:00:00 24 0 Calma 9 Oeste 0 -- -- 69
2020-09-06 22:00:00 24.3 3 Sudoeste 9 Sur 0 -- -- 70
2020-09-06 21:00:00 24.7 0 Calma 12 Sur 0 -- -- 68
2020-09-06 20:00:00 25.6 3 Sudeste 13 Sur 0 -- -- 64
2020-09-06 19:00:00 26.6 7 Sudeste 17 Sudeste 0 -- -- 60
2020-09-06 18:00:00 28.5 8 Sur 19 Sur 0 -- -- 49
2020-09-06 17:00:00 29 6 Sudeste 20 Sur 0 -- -- 49
2020-09-06 16:00:00 28.8 9 Sur 19 Sur 0 -- -- 49
2020-09-06 15:00:00 28.6 6 Sudeste 21 Sudeste 0 -- -- 48
2020-09-06 14:00:00 27.6 13 Sudeste 22 Sudeste 0 -- -- 50
2020-09-06 13:00:00 27.6 8 Sur 16 Sur 0 -- -- 54
2020-09-06 12:00:00 26.8 9 Sur 19 Sudeste 0 -- -- 55
2020-09-06 11:00:00 25.9 9 Sur 19 Sur 0 -- -- 58
2020-09-06 10:00:00 24.7 5 Sudeste 10 Sur 0 -- -- 64
2020-09-06 09:00:00 21.6 2 Nordeste 10 Norte 0 -- -- 72
2020-09-06 08:00:00 20.5 4 Norte 9 Norte 0 -- -- 73
2020-09-06 07:00:00 19.8 5 Norte 9 Norte 0 -- -- 74
2020-09-06 06:00:00 20.2 3 Norte 8 Norte 0 -- -- 72
2020-09-06 05:00:00 20.7 5 Norte 9 Norte 0 -- -- 71
2020-09-06 04:00:00 21.3 2 Norte 12 Nordeste 0 -- -- 69
2020-09-06 03:00:00 22.1 3 Norte 13 Norte 0 -- -- 70
2020-09-06 02:00:00 22.9 5 Norte 16 Norte 0 -- -- 67
2020-09-06 01:00:00 23.1 5 Nordeste 17 Norte 0 -- -- 68
2020-09-06 00:00:00 23.6 8 Norte 26 Norte 0 -- -- 66
2020-09-05 23:00:00 23.6 10 Norte 27 Nordeste 0 -- -- 68
2020-09-05 22:00:00 24 10 Norte 27 Norte 0 -- -- 66
2020-09-05 21:00:00 24.2 9 Nordeste 23 Norte 0 -- -- 68
2020-09-05 20:00:00 24.6 12 Norte 25 Nordeste 0 -- -- 69
2020-09-05 19:00:00 25.7 10 Nordeste 28 Norte 0 -- -- 65
2020-09-05 18:00:00 28 14 Norte 27 Nordeste 0 -- -- 55
2020-09-05 17:00:00 27.4 6 Sur 20 Sudeste 0 -- -- 61
2020-09-05 16:00:00 27.6 10 Sur 18 Sur 0 -- -- 59
2020-09-05 15:00:00 27.5 9 Sur 18 Sur 0 -- -- 60
2020-09-05 14:00:00 27.2 8 Sudeste 18 Sur 0 -- -- 60
2020-09-05 13:00:00 26.7 9 Sudeste 22 Sudeste 0 -- -- 63
2020-09-05 12:00:00 26.3 9 Sudeste 21 Sur 0 -- -- 64
2020-09-05 11:00:00 26.1 9 Sur 20 Sudeste 0 -- -- 65
2020-09-05 10:00:00 25.7 5 Nordeste 13 Norte 0 -- -- 66
2020-09-05 09:00:00 23.3 2 Nordeste 8 Nordeste 0 -- -- 73
2020-09-05 08:00:00 22.8 3 Nordeste 14 Norte 0 -- -- 73
2020-09-05 07:00:00 22.5 3 Norte 12 Sudeste 0 -- -- 75
2020-09-05 06:00:00 23 4 Norte 21 Norte 0 -- -- 72
2020-09-05 05:00:00 22.3 2 Sur 8 Norte 0 -- -- 75
2020-09-05 04:00:00 22.8 3 Oeste 8 Sudoeste 0 -- -- 81
2020-09-05 03:00:00 22.8 3 Nordeste 8 Nordeste 0 -- -- 74
2020-09-05 02:00:00 22.9 2 Norte 9 Norte 0 -- -- 75
2020-09-05 01:00:00 23.2 4 Sur 11 Sur 0 -- -- 78
2020-09-05 00:00:00 23.4 4 Sudoeste 8 Sudoeste 0 -- -- 76
2020-09-04 23:00:00 23.6 0 Calma 17 Sudeste 0 -- -- 74
2020-09-04 22:00:00 24.2 4 Norte 16 Noroeste 0 -- -- 70
2020-09-04 21:00:00 24.4 6 Este 16 Sudeste 0 -- -- 73
2020-09-04 20:00:00 25.3 5 Sur 20 Sudeste 0 -- -- 67
2020-09-04 19:00:00 26.3 6 Sudoeste 14 Sudoeste 0 -- -- 62
2020-09-04 18:00:00 28.3 8 Sur 22 Sur 0 -- -- 55
2020-09-04 17:00:00 28 9 Sur 17 Sur 0 -- -- 57
2020-09-04 16:00:00 28.2 9 Sudeste 22 Sur 0 -- -- 56
2020-09-04 15:00:00 28.1 10 Sudeste 22 Sur 0 -- -- 56
2020-09-04 14:00:00 28.1 9 Sur 17 Sur 0 -- -- 56
2020-09-04 13:00:00 28.1 9 Sur 22 Sur 0 -- -- 54
2020-09-04 12:00:00 28.4 6 Norte 23 Norte 0 -- -- 53
2020-09-04 11:00:00 26.8 9 Norte 28 Nordeste 0 -- -- 56
2020-09-04 10:00:00 24.5 12 Norte 34 Norte 0 -- -- 64
2020-09-04 09:00:00 23.1 9 Norte 23 Nordeste 0 -- -- 68
2020-09-04 08:00:00 21.7 7 Norte 18 Norte 0 -- -- 73
2020-09-04 07:00:00 19.9 0 Calma 8 Norte 0 -- -- 81
2020-09-04 06:00:00 19.7 5 Norte 9 Norte 0 -- -- 78
2020-09-04 05:00:00 19.7 4 Norte 8 Norte 0 -- -- 78
2020-09-04 04:00:00 20.2 4 Norte 8 Norte 0 -- -- 79
2020-09-04 03:00:00 20.4 4 Norte 8 Norte 0 -- -- 77
2020-09-04 02:00:00 21 3 Norte 7 Norte 0 -- -- 75
2020-09-04 01:00:00 22.1 0 Calma 7 Nordeste 0 -- -- 73
2020-09-04 00:00:00 22.7 5 Norte 8 Norte 0 -- -- 72
2020-09-03 23:00:00 23.3 4 Sur 10 Nordeste 0 -- -- 73
2020-09-03 22:00:00 23.7 4 Norte 11 Norte 0 -- -- 69
2020-09-03 21:00:00 24.2 3 Sudeste 9 Sur 0 -- -- 70
2020-09-03 20:00:00 25 4 Sur 11 Sur 0 -- -- 68
2020-09-03 19:00:00 25.8 5 Sur 15 Sudeste 0 -- -- 65
2020-09-03 18:00:00 27.3 8 Sudeste 19 Este 0 -- -- 60
2020-09-03 17:00:00 27.9 8 Sudeste 23 Sudeste 0 -- -- 58
2020-09-03 16:00:00 27.7 9 Sudeste 23 Sudeste 0 -- -- 59
2020-09-03 15:00:00 26.7 12 Sudeste 30 Sudeste 0 -- -- 63
2020-09-03 14:00:00 26.7 13 Sudeste 33 Sudeste 0 -- -- 61
2020-09-03 13:00:00 26.4 11 Sudeste 29 Sudeste 0 -- -- 64
2020-09-03 12:00:00 26 11 Sudeste 35 Este 0 -- -- 63
2020-09-03 11:00:00 25.9 9 Sudeste 22 Sudeste 0 -- -- 62
2020-09-03 10:00:00 25 3 Nordeste 10 Nordeste 0 -- -- 66
2020-09-03 09:00:00 21.1 2 Norte 5 Norte 0 -- -- 77
2020-09-03 08:00:00 20 4 Norte 7 Norte 0 -- -- 78
2020-09-03 07:00:00 20 3 Norte 9 Norte 0 -- -- 78
2020-09-03 06:00:00 19.9 5 Norte 9 Norte 0 -- -- 73
2020-09-03 05:00:00 19.9 4 Norte 8 Norte 0 -- -- 72
2020-09-03 04:00:00 20.2 6 Norte 11 Norte 0 -- -- 68
2020-09-03 03:00:00 20.3 4 Norte 8 Norte 0 -- -- 64
2020-09-03 02:00:00 20.9 4 Norte 8 Noroeste 0 -- -- 63
2020-09-03 01:00:00 21.7 4 Norte 7 Norte 0 -- -- 61
2020-09-03 00:00:00 22 3 Norte 7 Sudoeste 0 -- -- 60
2020-09-02 23:00:00 23.5 4 Sudoeste 13 Sur 0 -- -- 65
2020-09-02 22:00:00 24.1 6 Sur 18 Sudeste 0 -- -- 66
2020-09-02 21:00:00 24.9 8 Sur 17 Sur 0 -- -- 60
2020-09-02 20:00:00 26.2 6 Sur 21 Sudeste 0 -- -- 52
2020-09-02 19:00:00 28.3 10 Sur 20 Sudeste 0 -- -- 32
2020-09-02 18:00:00 30.1 11 Sudeste 24 Sur 0 -- -- 30
2020-09-02 17:00:00 30.6 7 Norte 27 Sudeste 0 -- -- 46
2020-09-02 16:00:00 29.1 15 Sur 31 Sudeste 0 -- -- 43
2020-09-02 15:00:00 28.1 12 Sudeste 31 Sudeste 0 -- -- 58
2020-09-02 14:00:00 27.6 12 Sudeste 31 Sur 0 -- -- 60
2020-09-02 13:00:00 29.3 6 Sudeste 23 Sur 0 -- -- 53
2020-09-02 12:00:00 28.2 8 Este 19 Norte 0 -- -- 53
2020-09-02 11:00:00 27 8 Norte 19 Norte 0 -- -- 59
2020-09-02 10:00:00 25.4 6 Norte 14 Norte 0 -- -- 65
2020-09-02 09:00:00 22.4 0 Calma 9 Norte 0 -- -- 75
2020-09-02 08:00:00 21.5 3 Norte 9 Nordeste 0 -- -- 77
2020-09-02 07:00:00 20.2 0 Calma 6 Norte 0 -- -- 80
2020-09-02 06:00:00 21 2 Noroeste 6 Norte 0 -- -- 78
2020-09-02 05:00:00 21 0 Calma 6 Norte 0 -- -- 77
2020-09-02 04:00:00 22.1 0 Calma 6 Norte 0 -- -- 75
2020-09-02 03:00:00 22.9 3 Norte 8 Este 0 -- -- 73
2020-09-02 02:00:00 23.5 4 Nordeste 18 Norte 0 -- -- 73
2020-09-02 01:00:00 23.7 6 Norte 16 Norte 0 -- -- 72
2020-09-02 00:00:00 24.1 5 Norte 18 Norte 0 -- -- 72
2020-09-01 23:00:00 24.2 11 Norte 22 Nordeste 0 -- -- 72
2020-09-01 22:00:00 24.4 11 Norte 23 Norte 0 -- -- 70
2020-09-01 21:00:00 24.7 13 Norte 24 Nordeste 0 -- -- 69
2020-09-01 20:00:00 25.2 10 Norte 28 Norte 0 -- -- 67
2020-09-01 19:00:00 26 13 Norte 28 Nordeste 0 -- -- 66
2020-09-01 18:00:00 27.6 15 Norte 32 Norte 0 -- -- 58
2020-09-01 17:00:00 28.1 13 Norte 30 Noroeste 0 -- -- 58
2020-09-01 16:00:00 28.1 15 Norte 33 Norte 0 -- -- 58
2020-09-01 15:00:00 29.2 10 Norte 25 Norte 0 -- -- 54
2020-09-01 14:00:00 28 13 Norte 31 Norte 0 -- -- 57
2020-09-01 13:00:00 26.7 9 Norte 23 Norte 0 -- -- 60
2020-09-01 12:00:00 26.4 7 Norte 21 Noroeste 0 -- -- 63
2020-09-01 11:00:00 25.4 6 Norte 15 Nordeste 0 -- -- 64
2020-09-01 10:00:00 24.8 6 Norte 13 Noroeste 0 -- -- 67
2020-09-01 09:00:00 24.2 3 Norte 11 Nordeste 0 -- -- 68
2020-09-01 08:00:00 23.8 4 Norte 13 Nordeste 0 -- -- 71
2020-09-01 07:00:00 23.7 4 Norte 10 Noroeste 0 -- -- 70
2020-09-01 06:00:00 23.9 4 Norte 10 Noroeste 0 -- -- 69
2020-09-01 05:00:00 23.9 4 Norte 10 Nordeste 0 -- -- 70
2020-09-01 04:00:00 23.9 4 Norte 21 Noroeste 0 -- -- 68
2020-09-01 03:00:00 23.9 4 Norte 19 Norte 0 -- -- 66
2020-09-01 02:00:00 23.8 6 Norte 19 Norte 0 -- -- 64
2020-09-01 01:00:00 23.6 6 Norte 27 Norte 0 -- -- 70
2020-09-01 00:00:00 23.5 9 Norte 24 Nordeste 0 -- -- 68
2020-08-31 23:00:00 23.2 7 Norte 27 Norte 0 -- -- 72
2020-08-31 22:00:00 23.1 6 Norte 19 Nordeste 0 -- -- 69
2020-08-31 21:00:00 23.2 6 Norte 31 Noroeste 0 -- -- 70
2020-08-31 20:00:00 23.7 6 Norte 28 Norte 0 -- -- 66
2020-08-31 19:00:00 24 12 Norte 30 Norte 0 -- -- 63
2020-08-31 18:00:00 25.7 10 Norte 31 Norte 0 -- -- 58
2020-08-31 17:00:00 25.7 12 Norte 36 Nordeste 0 -- -- 56
2020-08-31 16:00:00 26.3 13 Norte 34 Norte 0 -- -- 55
2020-08-31 15:00:00 26.4 13 Norte 35 Norte 0 -- -- 56
2020-08-31 14:00:00 26.1 13 Norte 36 Norte 0 -- -- 55
2020-08-31 13:00:00 25.4 11 Norte 28 Norte 0 -- -- 56
2020-08-31 12:00:00 24.9 11 Norte 28 Noroeste 0 -- -- 58
2020-08-31 11:00:00 24.9 13 Norte 31 Norte 0 -- -- 59
2020-08-31 10:00:00 24.3 13 Norte 28 Nordeste 0 -- -- 59
2020-08-31 09:00:00 22.9 10 Norte 26 Oeste 0 -- -- 65
2020-08-31 08:00:00 22 6 Norte 23 Norte 0 -- -- 68
2020-08-31 07:00:00 22.1 8 Norte 27 Norte 0 -- -- 66
2020-08-31 06:00:00 22 9 Norte 28 Norte 0 -- -- 67
2020-08-31 05:00:00 22.2 9 Norte 32 Norte 0 -- -- 66
2020-08-31 04:00:00 22.2 10 Norte 31 Noroeste 0 -- -- 67
2020-08-31 03:00:00 22.3 15 Norte 33 Nordeste 0 -- -- 66
2020-08-31 02:00:00 22.4 14 Norte 29 Norte 0 -- -- 65
2020-08-31 01:00:00 22.5 12 Norte 31 Norte 0 -- -- 64
2020-08-31 00:00:00 22.8 9 Norte 27 Nordeste 0 -- -- 66
2020-08-30 23:00:00 22.8 8 Norte 29 Norte 0 -- -- 63
2020-08-30 22:00:00 22.9 7 Norte 21 Noroeste 0 -- -- 65
2020-08-30 21:00:00 23 9 Norte 31 Norte 0 -- -- 63
2020-08-30 20:00:00 23.4 9 Norte 31 Norte 0 -- -- 63
2020-08-30 19:00:00 23.7 9 Norte 33 Noroeste 0 -- -- 58
2020-08-30 18:00:00 24.5 11 Norte 30 Norte 0 -- -- 58
2020-08-30 17:00:00 25 11 Norte 30 Norte 0 -- -- 55
2020-08-30 16:00:00 24.6 13 Norte 37 Noroeste 0 -- -- 56
2020-08-30 15:00:00 24.6 9 Norte 28 Norte 0 -- -- 56
2020-08-30 14:00:00 24.9 10 Norte 30 Noroeste 0 -- -- 60
2020-08-30 13:00:00 23.9 10 Norte 29 Nordeste 0 -- -- 61
2020-08-30 12:00:00 24.7 10 Norte 27 Norte 0 -- -- 59
2020-08-30 11:00:00 24.4 9 Nordeste 34 Norte 0 -- -- 58
2020-08-30 10:00:00 23.9 10 Norte 31 Nordeste 0 -- -- 60
2020-08-30 09:00:00 22.2 6 Norte 26 Noroeste 0 -- -- 67
2020-08-30 08:00:00 21.7 6 Norte 24 Norte 0 -- -- 73
2020-08-30 07:00:00 22.5 7 Norte 31 Norte 0 -- -- 60
2020-08-30 06:00:00 22.7 7 Sudoeste 32 Norte 0 -- -- 62
2020-08-30 05:00:00 22.3 10 Norte 29 Norte 0 -- -- 72
2020-08-30 04:00:00 22.6 6 Norte 26 Norte 0 -- -- 70
2020-08-30 03:00:00 22.8 12 Norte 27 Nordeste 0 -- -- 62
2020-08-30 02:00:00 22.9 7 Norte 26 Norte 0 -- -- 65
2020-08-30 01:00:00 23.1 8 Norte 31 Norte 0 -- -- 67
2020-08-30 00:00:00 23.2 8 Norte 35 Norte 0 -- -- 68
2020-08-29 23:00:00 23.3 6 Norte 18 Norte 0 -- -- 71
2020-08-29 22:00:00 23.4 10 Norte 29 Norte 0 -- -- 70
2020-08-29 21:00:00 23.6 6 Norte 39 Norte 0 -- -- 68
2020-08-29 20:00:00 23.9 8 Nordeste 28 Norte 0 -- -- 67
2020-08-29 19:00:00 24.4 10 Norte 35 Nordeste 0 -- -- 69
2020-08-29 18:00:00 25.1 10 Norte 31 Norte 0 -- -- 68
2020-08-29 17:00:00 25.4 13 Norte 37 Nordeste 0 -- -- 71
2020-08-29 16:00:00 25.6 8 Norte 42 Norte 0 -- -- 74
2020-08-29 15:00:00 26.8 19 Norte 38 Norte 0 -- -- 71
2020-08-29 14:00:00 27.6 14 Norte 38 Noroeste 0 -- -- 59
2020-08-29 13:00:00 26.5 13 Norte 30 Nordeste 0 -- -- 61
2020-08-29 12:00:00 26 7 Norte 30 Norte 0 -- -- 62
2020-08-29 11:00:00 25.3 9 Este 34 Noroeste 0 -- -- 62
2020-08-29 10:00:00 24.5 9 Norte 29 Nordeste 0 -- -- 64
2020-08-29 09:00:00 24 12 Norte 45 Norte 0 -- -- 64
2020-08-29 08:00:00 23.5 9 Noroeste 31 Norte 0 -- -- 65
2020-08-29 07:00:00 23.4 8 Norte 26 Norte 0 -- -- 67
2020-08-29 06:00:00 23.3 9 Norte 19 Nordeste 0 -- -- 72
2020-08-29 05:00:00 23.2 7 Norte 23 Norte 0 -- -- 71
2020-08-29 04:00:00 23.3 3 Noroeste 16 Norte 0 -- -- 72
2020-08-29 03:00:00 23.4 6 Norte 31 Norte 0 -- -- 73
2020-08-29 02:00:00 23.4 7 Norte 24 Nordeste 0 -- -- 71
2020-08-29 01:00:00 23.6 10 Norte 25 Norte 0 -- -- 72
2020-08-29 00:00:00 23.8 11 Norte 29 Noroeste 0 -- -- 71
2020-08-28 23:00:00 24.2 14 Noroeste 39 Norte 0 -- -- 67
2020-08-28 22:00:00 24.6 13 Norte 33 Norte 0 -- -- 65
2020-08-28 21:00:00 25.2 13 Norte 29 Norte 0 -- -- 64
2020-08-28 20:00:00 26 14 Norte 34 Norte 0 -- -- 58
2020-08-28 19:00:00 27.4 13 Norte 34 Norte 0 -- -- 56
2020-08-28 18:00:00 29.6 18 Norte 37 Norte 0 -- -- 47
2020-08-28 17:00:00 30.6 12 Norte 32 Norte 0 -- -- 45
2020-08-28 16:00:00 30.6 19 Norte 39 Norte 0 -- -- 49
2020-08-28 15:00:00 34 12 Sur 29 Sudeste 0 -- -- 31
2020-08-28 14:00:00 33.5 12 Sur 27 Sudeste 0 -- -- 26
2020-08-28 13:00:00 33.4 10 Sur 26 Sur 0 -- -- 27
2020-08-28 12:00:00 33.7 9 Sur 18 Sur 0 -- -- 26
2020-08-28 11:00:00 33.1 6 Sur 25 Nordeste 0 -- -- 30
2020-08-28 10:00:00 31.1 12 Nordeste 26 Nordeste 0 -- -- 35
2020-08-28 09:00:00 28.9 9 Nordeste 28 Nordeste 0 -- -- 42
2020-08-28 08:00:00 28.6 8 Norte 16 Norte 0 -- -- 35
2020-08-28 07:00:00 26.8 4 Noroeste 12 Sur 0 -- -- 33
2020-08-28 06:00:00 27.3 4 Noroeste 10 Norte 0 -- -- 33
2020-08-28 05:00:00 27.5 4 Norte 11 Norte 0 -- -- 32
2020-08-28 04:00:00 27.1 4 Noroeste 9 Noroeste 0 -- -- 33
2020-08-28 03:00:00 27.8 4 Noroeste 10 Nordeste 0 -- -- 32
2020-08-28 02:00:00 27.5 4 Norte 9 Norte 0 -- -- 35
2020-08-28 01:00:00 27.5 2 Nordeste 9 Norte 0 -- -- 40
2020-08-28 00:00:00 28.2 3 Norte 7 Norte 0 -- -- 43
2020-08-27 23:00:00 29.1 3 Sudoeste 8 Sudoeste 0 -- -- 49
2020-08-27 22:00:00 29.7 3 Sur 9 Oeste 0 -- -- 47
2020-08-27 21:00:00 30.3 3 Noroeste 8 Nordeste 0 -- -- 43
2020-08-27 20:00:00 31.4 6 Sur 14 Sudoeste 0 -- -- 40
2020-08-27 19:00:00 32.2 9 Sur 14 Sur 0 -- -- 40
2020-08-27 18:00:00 36 7 Sudoeste 30 Norte 0 -- -- 28
2020-08-27 17:00:00 38.3 15 Norte 35 Norte 0 -- -- 20
2020-08-27 16:00:00 33.6 6 Sudeste 13 Sur 0 -- -- 48
2020-08-27 15:00:00 32.6 5 Sudeste 12 Sudeste 0 -- -- 57
2020-08-27 14:00:00 31.6 7 Sudeste 15 Sudeste 0 -- -- 60
2020-08-27 13:00:00 30 7 Sudeste 13 Este 0 -- -- 65
2020-08-27 12:00:00 29.5 6 Sudeste 11 Sudeste 0 -- -- 68
2020-08-27 11:00:00 28.2 4 Sudeste 10 Sudeste 0 -- -- 73
2020-08-27 10:00:00 27.4 0 Calma 6 Sur 0 -- -- 76
2020-08-27 09:00:00 25.8 2 Sur 5 Sudeste 0 -- -- 82
2020-08-27 08:00:00 25 0 Calma 6 Sur 0 -- -- 85
2020-08-27 07:00:00 25.1 0 Calma 7 Sudeste 0 -- -- 83
2020-08-27 06:00:00 25.1 2 Norte 10 Sudeste 0 -- -- 83
2020-08-27 05:00:00 25.4 3 Norte 6 Sudeste 0 -- -- 82
2020-08-27 04:00:00 25.6 0 Calma 8 Sur 0 -- -- 81
2020-08-27 03:00:00 26.2 4 Sudeste 9 Sur 0 -- -- 77
2020-08-27 02:00:00 25.4 2 Norte 17 Sudoeste 0 -- -- 80
2020-08-27 01:00:00 25.9 4 Sudoeste 14 Sur 0 -- -- 78
2020-08-27 00:00:00 25.8 2 Nordeste 9 Sudeste 0 -- -- 80
2020-08-26 23:00:00 26.9 3 Sudeste 6 Norte 0 -- -- 74
2020-08-26 22:00:00 26.7 0 Calma 12 Sur 0 -- -- 74
2020-08-26 21:00:00 27.6 2 Sur 13 Sudoeste 0 -- -- 72
2020-08-26 20:00:00 28.3 8 Sudoeste 15 Sudoeste 0 -- -- 67
2020-08-26 19:00:00 27.7 7 Sur 13 Sudeste 0 -- -- 71
2020-08-26 18:00:00 28.1 8 Sur 15 Sudeste 0 -- -- 70
2020-08-26 17:00:00 28.9 8 Sur 19 Sudeste 0 -- -- 67
2020-08-26 16:00:00 29 8 Sur 19 Sudeste 0 -- -- 66
2020-08-26 15:00:00 30.2 8 Sur 17 Sudeste 0 -- -- 61
2020-08-26 14:00:00 29.5 8 Sur 22 Sur 0 -- -- 62
2020-08-26 13:00:00 29.5 6 Sur 17 Sur 0 -- -- 62
2020-08-26 12:00:00 28.7 6 Sur 13 Sudeste 0 -- -- 64
2020-08-26 11:00:00 27.8 6 Sudeste 21 Sur 0 -- -- 65
2020-08-26 10:00:00 28.8 2 Norte 31 Sudoeste 0 -- -- 53
2020-08-26 09:00:00 25.6 2 Sudeste 9 Norte 0 -- -- 57
2020-08-26 08:00:00 24.1 2 Sudoeste 8 Norte 0 -- -- 63
2020-08-26 07:00:00 23.8 0 Calma 7 Nordeste 0 -- -- 73
2020-08-26 06:00:00 23.9 4 Norte 7 Nordeste 0 -- -- 70
2020-08-26 05:00:00 24.2 0 Calma 9 Este 0 -- -- 77
2020-08-26 04:00:00 24.6 3 Sudoeste 16 Sur 0 -- -- 71
2020-08-26 03:00:00 25 5 Este 14 Sur 0 -- -- 69
2020-08-26 02:00:00 25.4 7 Sur 23 Sudeste 0 -- -- 70
2020-08-26 01:00:00 26 8 Sur 19 Sur 0 -- -- 67
2020-08-26 00:00:00 26.3 9 Sudoeste 15 Oeste 0 -- -- 65
2020-08-25 23:00:00 26 7 Nordeste 27 Nordeste 0 -- -- 63
2020-08-25 22:00:00 26.4 12 Nordeste 25 Nordeste 0 -- -- 63
2020-08-25 21:00:00 26.4 7 Norte 21 Norte 0 -- -- 64
2020-08-25 20:00:00 27.2 9 Norte 30 Norte 0 -- -- 62
2020-08-25 19:00:00 28.4 11 Norte 28 Noroeste 0 -- -- 57
2020-08-25 18:00:00 30 9 Norte 28 Nordeste 0 -- -- 52
2020-08-25 17:00:00 30.4 11 Norte 30 Nordeste 0 -- -- 51
2020-08-25 16:00:00 30.9 14 Nordeste 27 Nordeste 0 -- -- 50
2020-08-25 15:00:00 30.7 12 Norte 30 Nordeste 0 -- -- 51
2020-08-25 14:00:00 30.8 11 Norte 28 Norte 0 -- -- 50
2020-08-25 13:00:00 30.5 12 Norte 30 Norte 0 -- -- 49
2020-08-25 12:00:00 30.4 8 Sur 26 Nordeste 0 -- -- 48
2020-08-25 11:00:00 29.4 12 Nordeste 28 Norte 0 -- -- 47
2020-08-25 10:00:00 28.3 10 Nordeste 21 Nordeste 0 -- -- 46
2020-08-25 09:00:00 26.6 4 Norte 13 Norte 0 -- -- 43
2020-08-25 08:00:00 24.8 7 Norte 21 Nordeste 0 -- -- 51
2020-08-25 07:00:00 24.1 6 Norte 29 Norte 0 -- -- 60
2020-08-25 06:00:00 23.9 12 Norte 33 Norte 0 -- -- 64
2020-08-25 05:00:00 23.2 12 Norte 38 Noroeste 0 -- -- 73
2020-08-25 04:00:00 23.2 15 Norte 32 Norte 0 -- -- 73
2020-08-25 03:00:00 23.3 15 Norte 31 Norte 0 -- -- 74
2020-08-25 02:00:00 23.4 12 Norte 27 Nordeste 0 -- -- 73
2020-08-25 01:00:00 23.6 10 Norte 34 Noroeste 0 -- -- 72
2020-08-25 00:00:00 23.7 13 Norte 33 Norte 0 -- -- 71
2020-08-24 23:00:00 23.7 14 Norte 34 Norte 0 -- -- 72
2020-08-24 22:00:00 24.1 16 Norte 37 Norte 0 -- -- 69
2020-08-24 21:00:00 24.2 12 Norte 42 Nordeste 0 -- -- 71
2020-08-24 20:00:00 25.1 15 Norte 38 Norte 0 -- -- 67
2020-08-24 19:00:00 26.1 14 Norte 38 Norte 0 -- -- 61
2020-08-24 18:00:00 27.9 15 Norte 38 Norte 0 -- -- 51
2020-08-24 17:00:00 28.1 17 Norte 37 Nordeste 0 -- -- 56
2020-08-24 16:00:00 28.1 19 Norte 39 Norte 0 -- -- 57
2020-08-24 15:00:00 28.8 17 Norte 36 Norte 0 -- -- 54
2020-08-24 14:00:00 28.5 15 Norte 39 Norte 0 -- -- 54
2020-08-24 13:00:00 27.7 18 Norte 42 Nordeste 0 -- -- 58
2020-08-24 12:00:00 27.7 19 Norte 39 Norte 0 -- -- 57
2020-08-24 11:00:00 26.9 19 Norte 40 Norte 0 -- -- 60
2020-08-24 10:00:00 26.1 18 Norte 39 Norte 0 -- -- 60
2020-08-24 09:00:00 25.1 15 Norte 37 Norte 0 -- -- 60
2020-08-24 08:00:00 23.9 15 Norte 34 Nordeste 0 -- -- 63
2020-08-24 07:00:00 23.6 12 Norte 39 Nordeste 0 -- -- 64
2020-08-24 06:00:00 23.5 16 Norte 40 Nordeste 0 -- -- 68
2020-08-24 05:00:00 23.5 16 Norte 37 Norte 0 -- -- 68
2020-08-24 04:00:00 23.8 13 Norte 31 Nordeste 0 -- -- 65
2020-08-24 03:00:00 23.8 10 Norte 29 Nordeste 0 -- -- 63
2020-08-24 02:00:00 24 13 Norte 32 Norte 0 -- -- 65
2020-08-24 01:00:00 24.3 16 Norte 35 Nordeste 0 -- -- 63
2020-08-24 00:00:00 24 14 Norte 33 Norte 0 -- -- 66
2020-08-23 23:00:00 24.2 10 Norte 39 Nordeste 0 -- -- 62
2020-08-23 22:00:00 24.6 12 Norte 39 Norte 0 -- -- 61
2020-08-23 21:00:00 24.4 14 Norte 32 Norte 0 -- -- 66
2020-08-23 20:00:00 25.4 15 Norte 37 Nordeste 0 -- -- 56
2020-08-23 19:00:00 26.6 18 Norte 41 Nordeste 0 -- -- 55
2020-08-23 18:00:00 27.7 17 Norte 36 Noroeste 0 -- -- 55
2020-08-23 17:00:00 28.8 18 Norte 36 Norte 0 -- -- 46
2020-08-23 16:00:00 30.2 19 Norte 39 Norte 0 -- -- 38
2020-08-23 15:00:00 30.2 18 Norte 45 Nordeste 0 -- -- 38
2020-08-23 14:00:00 29.4 18 Norte 38 Norte 0 -- -- 47
2020-08-23 13:00:00 28.4 16 Norte 44 Norte 0 -- -- 52
2020-08-23 12:00:00 26.9 18 Norte 42 Norte 0 -- -- 64
2020-08-23 11:00:00 26.2 18 Norte 44 Noroeste 0 -- -- 66
2020-08-23 10:00:00 26.3 15 Norte 37 Nordeste 0 -- -- 64
2020-08-23 09:00:00 25.4 16 Norte 35 Norte 0 -- -- 66
2020-08-23 08:00:00 25.3 15 Norte 30 Nordeste 0 -- -- 65
2020-08-23 07:00:00 24.6 17 Norte 38 Norte 0 -- -- 70
2020-08-23 06:00:00 24.5 18 Norte 39 Noroeste 0 -- -- 70
2020-08-23 05:00:00 24.9 17 Norte 34 Norte 0 -- -- 67
2020-08-23 04:00:00 25.3 12 Nordeste 23 Norte 0 -- -- 63
2020-08-23 03:00:00 25.4 10 Nordeste 24 Norte 0 -- -- 58
2020-08-23 02:00:00 25.6 10 Norte 27 Norte 0 -- -- 58
2020-08-23 01:00:00 25.9 13 Norte 27 Nordeste 0 -- -- 54
2020-08-23 00:00:00 26.2 13 Norte 29 Nordeste 0 -- -- 52
2020-08-22 23:00:00 26.1 13 Norte 38 Norte 0 -- -- 57
2020-08-22 22:00:00 26.8 17 Norte 35 Nordeste 0 -- -- 54
2020-08-22 21:00:00 28.9 13 Norte 31 Norte 0 -- -- 41
2020-08-22 20:00:00 29.9 11 Norte 23 Noroeste 0 -- -- 35
2020-08-22 19:00:00 31.8 11 Norte 25 Norte 0 -- -- 31
2020-08-22 18:00:00 34.3 11 Norte 22 Norte 0 -- -- 27
2020-08-22 17:00:00 35.5 7 Norte 20 Norte 0 -- -- 25
2020-08-22 16:00:00 35 9 Sur 28 Sudeste 0 -- -- 23
2020-08-22 15:00:00 34.5 14 Sur 31 Sudeste 0 -- -- 24
2020-08-22 14:00:00 34.2 12 Sur 24 Sudeste 0 -- -- 21
2020-08-22 13:00:00 33.1 10 Sudoeste 24 Sudeste 0 -- -- 26
2020-08-22 12:00:00 32.2 9 Sur 18 Sur 0 -- -- 27
2020-08-22 11:00:00 31 6 Sudoeste 18 Sudeste 0 -- -- 33
2020-08-22 10:00:00 29.3 5 Sudoeste 14 Oeste 0 -- -- 33
2020-08-22 09:00:00 26.4 3 Sudeste 10 Sudeste 0 -- -- 46
2020-08-22 08:00:00 24 3 Norte 9 Norte 0 -- -- 33
2020-08-22 07:00:00 23.6 4 Norte 9 Norte 0 -- -- 35
2020-08-22 06:00:00 23.1 3 Norte 8 Norte 0 -- -- 46
2020-08-22 05:00:00 23.5 2 Norte 6 Nordeste 0 -- -- 57
2020-08-22 04:00:00 24.2 3 Norte 8 Sur 0 -- -- 65
2020-08-22 03:00:00 25 4 Sudeste 17 Nordeste 0 -- -- 64
2020-08-22 02:00:00 25.1 6 Sur 15 Oeste 0 -- -- 72
2020-08-22 01:00:00 28.1 4 Nordeste 30 Norte 0 -- -- 37
2020-08-22 00:00:00 26.5 5 Nordeste 15 Nordeste 0 -- -- 31
2020-08-21 23:00:00 24.8 3 Sudeste 6 Sudeste 0 -- -- 75
2020-08-21 22:00:00 25.6 0 Calma 15 Sudoeste 0 -- -- 65
2020-08-21 21:00:00 25.8 3 Norte 18 Sudoeste 0 -- -- 63
2020-08-21 20:00:00 27.6 5 Este 19 Sudoeste 0 -- -- 56
2020-08-21 19:00:00 27.7 14 Sudoeste 24 Sudoeste 0 -- -- 54
2020-08-21 18:00:00 30 12 Sur 21 Sur 0 -- -- 40
2020-08-21 17:00:00 31.2 9 Sur 21 Sudeste 0 -- -- 38
2020-08-21 16:00:00 28.9 8 Sudeste 24 Sudeste 0 -- -- 52
2020-08-21 15:00:00 28.6 10 Sudeste 23 Sudeste 0 -- -- 54
2020-08-21 14:00:00 29.2 10 Sudeste 26 Sudeste 0 -- -- 53
2020-08-21 13:00:00 28.2 12 Sudeste 24 Sudeste 0 -- -- 54
2020-08-21 12:00:00 28.3 9 Sur 20 Sudeste 0 -- -- 53
2020-08-21 11:00:00 27.2 7 Sur 18 Sur 0 -- -- 56
2020-08-21 10:00:00 26.3 5 Sudeste 17 Sudoeste 0 -- -- 53
2020-08-21 09:00:00 22.3 2 Sur 12 Oeste 0 -- -- 61
2020-08-21 08:00:00 20.3 4 Norte 9 Noroeste 0 -- -- 57
2020-08-21 07:00:00 20.4 4 Norte 8 Norte 0 -- -- 53
2020-08-21 06:00:00 20.8 3 Norte 8 Norte 0 -- -- 49
2020-08-21 05:00:00 21 5 Norte 9 Norte 0 -- -- 46
2020-08-21 04:00:00 21.9 2 Norte 5 Oeste 0 -- -- 49
2020-08-21 03:00:00 24 2 Sudoeste 17 Norte 0 -- -- 47
2020-08-21 02:00:00 25.5 6 Norte 18 Nordeste 0 -- -- 34
2020-08-21 01:00:00 26.3 8 Norte 22 Norte 0 -- -- 26
2020-08-21 00:00:00 26.4 7 Nordeste 24 Noroeste 0 -- -- 27